createdAt,value
2022-12-28T18:52:42.825Z,100.00
2022-12-28T18:55:47.113Z,99.00
2022-12-28T18:58:52.732Z,96.44
2022-12-28T19:02:18.925Z,96.49
2022-12-28T19:05:20.919Z,95.02
2022-12-28T19:08:26.255Z,95.72
2022-12-28T19:11:30.618Z,94.60
2022-12-28T19:14:34.417Z,93.49
2022-12-28T19:17:38.186Z,93.92
2022-12-28T19:20:42.409Z,91.59
2022-12-28T19:23:51.592Z,91.24
2022-12-28T19:26:55.389Z,90.61
2022-12-28T19:29:59.156Z,90.02
2022-12-28T19:33:02.951Z,88.60
2022-12-28T19:36:07.321Z,89.72
2022-12-28T19:39:13.438Z,88.11
2022-12-28T19:42:17.231Z,87.87
2022-12-28T19:45:21.001Z,87.85
2022-12-28T19:48:24.782Z,87.98
2022-12-28T19:51:31.793Z,88.80
2022-12-28T19:54:37.697Z,88.36
2022-12-28T19:57:41.872Z,89.24
2022-12-28T20:00:45.830Z,88.54
2022-12-28T20:03:49.787Z,87.50
2022-12-28T20:06:53.673Z,88.15
2022-12-28T20:09:58.807Z,89.15
2022-12-28T20:13:02.710Z,88.52
2022-12-28T20:16:07.198Z,87.95
2022-12-28T20:19:12.047Z,86.66
2022-12-28T20:22:15.837Z,87.46
2022-12-28T20:25:20.985Z,88.28
2022-12-28T20:28:25.486Z,88.47
2022-12-28T20:31:29.900Z,88.62
2022-12-28T20:34:34.856Z,88.04
2022-12-28T20:37:38.625Z,89.07
2022-12-28T20:40:43.792Z,88.91
2022-12-28T20:43:48.780Z,89.13
2022-12-28T20:46:53.550Z,89.24
2022-12-28T20:49:57.367Z,87.65
2022-12-28T20:53:01.152Z,89.31
2022-12-28T20:56:10.754Z,89.92
2022-12-28T20:59:15.393Z,91.21
2022-12-28T21:02:19.622Z,88.85
2022-12-28T21:05:23.491Z,89.81
2022-12-28T21:08:30.803Z,89.77
2022-12-28T21:11:36.295Z,89.17
2022-12-28T21:14:40.014Z,92.00
2022-12-28T21:17:43.869Z,90.92
2022-12-28T21:20:47.888Z,90.55
2022-12-28T21:23:52.530Z,90.83
2022-12-28T21:26:57.717Z,90.24
2022-12-28T21:30:01.476Z,90.87
2022-12-28T21:33:05.490Z,91.64
2022-12-28T21:36:14.400Z,91.69
2022-12-28T21:39:18.315Z,90.85
2022-12-28T21:42:23.449Z,91.44
2022-12-28T21:45:27.277Z,91.42
2022-12-28T21:48:32.753Z,90.57
2022-12-28T21:51:38.557Z,89.46
2022-12-28T21:54:42.372Z,90.85
2022-12-28T21:57:51.266Z,91.57
2022-12-28T22:01:16.694Z,90.19
2022-12-28T22:04:39.506Z,90.21
2022-12-28T22:07:43.287Z,90.49
2022-12-28T22:11:04.631Z,90.29
2022-12-28T22:14:09.816Z,90.79
2022-12-28T22:17:14.672Z,90.12
2022-12-28T22:20:18.933Z,90.41
2022-12-28T22:23:23.834Z,89.54
2022-12-28T22:26:27.768Z,91.74
